Jasper S — V2CQ4 — position and weather

sailwx.info

Track history (hours):
 
Tides and Currents Weather Stations Pressure Air Temp Water Temp Dewpoint Dewpoint Depression Visibility Wind Speed Wind Dir Waves Ship Positions

Jasper S

Last reported at 2015-Apr-26 04:05 UTC. Time now 2015-Apr-27 22:12 UTC.
Position N 37°37' E 002°06'.

Length 148 m; draft 9.2 m.

Type: Ship. MMSI: 305079000.

Date/timePositionNaut miles runAvg speedWind from/ knotsBaromVisibWave heightAir tempDewpointWater temp
2015-Apr-26 04:05N 37°37' E 002°06'611.9
2015-Apr-26 03:33N 37°41' E 002°00'4912.3
2015-Apr-25 23:33N 38°16' E 001°16'1312.5
2015-Apr-25 22:33N 38°25' E 001°04'1212.2
2015-Apr-25 21:33N 38°33' E 000°53'1212.4
2015-Apr-25 20:33N 38°41' E 000°42'1212.2
2015-Apr-25 19:33N 38°50' E 000°31'1512.9
2015-Apr-25 18:23N 39°01' E 000°17'3311.5
2015-Apr-25 15:33N 39°23' W 000°13'6 5.3
2015-Apr-25 14:28N 39°26' W 000°20'0 0.0
2015-Apr-25 13:31N 39°26' W 000°20'0 0.0
2015-Apr-25 12:31N 39°26' W 000°20'0 0.0
2015-Apr-25 11:31N 39°26' W 000°20'0 0.0
2015-Apr-25 10:31N 39°26' W 000°20'0 0.0
2015-Apr-25 09:31N 39°26' W 000°20'0 0.0
2015-Apr-25 08:31N 39°26' W 000°20'0 0.0
2015-Apr-25 07:31N 39°26' W 000°20'0 0.0
2015-Apr-25 06:28N 39°26' W 000°20'0 0.0
2015-Apr-25 05:31N 39°26' W 000°20'0 0.0
2015-Apr-25 04:31N 39°26' W 000°20'0 0.0
2015-Apr-25 03:31N 39°26' W 000°20'0 0.0
2015-Apr-25 02:31N 39°26' W 000°20'0 0.0
2015-Apr-25 01:31N 39°26' W 000°20'0 0.0
2015-Apr-25 00:31N 39°26' W 000°20'0 0.0
2015-Apr-24 23:31N 39°26' W 000°20'1 1.1
2015-Apr-24 22:33N 39°26' W 000°18'2613.1
2015-Apr-24 20:33N 39°08' E 000°07'2217.1
2015-Apr-24 19:16N 38°52' E 000°26'1317.7
2015-Apr-24 18:33N 38°44' E 000°38'1817.8
2015-Apr-24 17:33N 38°31' E 000°55'1818.0
2015-Apr-24 16:33N 38°19' E 001°11'  
2015-Apr-20 13:05N 36°47' E 003°07'0 0.0
2015-Apr-20 11:30N 36°47' E 003°07'0 0.0
2015-Apr-20 03:29N 36°48' E 003°07'0 0.1
2015-Apr-20 02:23N 36°48' E 003°07'0 0.0
2015-Apr-20 01:29N 36°48' E 003°07'56 1.6
2015-Apr-18 14:17N 37°27' E 002°18'912.0
2015-Apr-18 13:33N 37°33' E 002°10'1414.5
2015-Apr-18 12:33N 37°44' E 001°57'1312.5
2015-Apr-18 11:33N 37°52' E 001°46'1312.0
2015-Apr-18 10:29N 38°01' E 001°34'1412.0
2015-Apr-18 09:18N 38°11' E 001°21'912.0
2015-Apr-18 08:33N 38°18' E 001°13'1211.8
2015-Apr-18 07:33N 38°26' E 001°02'1311.7
2015-Apr-18 06:27N 38°35' E 000°51'1311.8
2015-Apr-18 05:23N 38°44' E 000°39'6012.4
2015-Apr-18 00:33N 39°25' W 000°17'3 2.6
2015-Apr-17 23:32N 39°26' W 000°19'0 0.0
2015-Apr-17 22:32N 39°26' W 000°19'0 0.0
2015-Apr-17 21:32N 39°26' W 000°19'0 0.0
2015-Apr-17 20:32N 39°26' W 000°19'0 0.0
2015-Apr-17 19:32N 39°26' W 000°19'0 0.0
2015-Apr-17 18:29N 39°26' W 000°19'0 0.0
2015-Apr-17 17:26N 39°26' W 000°19'0 0.0
2015-Apr-17 16:23N 39°26' W 000°19'0 0.0
2015-Apr-17 15:29N 39°26' W 000°19'0 0.0
2015-Apr-17 14:26N 39°26' W 000°19'0 0.0
2015-Apr-17 13:31N 39°26' W 000°19'0 0.0
2015-Apr-17 12:31N 39°26' W 000°19'0 0.0
2015-Apr-17 11:28N 39°26' W 000°19'2 2.2
2015-Apr-17 10:33N 39°25' W 000°18'1 0.8
2015-Apr-17 09:32N 39°24' W 000°18'0 0.0
2015-Apr-17 08:32N 39°24' W 000°18'0 0.0
2015-Apr-17 07:32N 39°24' W 000°18'0 0.0
2015-Apr-17 06:32N 39°24' W 000°18'0 0.1
2015-Apr-17 05:29N 39°24' W 000°18'0 0.0
2015-Apr-17 04:29N 39°24' W 000°18'0 0.0
2015-Apr-17 03:17N 39°24' W 000°18'0 0.0
2015-Apr-17 02:17N 39°24' W 000°18'0 0.0
2015-Apr-17 01:20N 39°24' W 000°18'0 0.0
2015-Apr-17 00:23N 39°24' W 000°18'0 0.0
2015-Apr-16 23:20N 39°24' W 000°18'0 0.0
2015-Apr-16 22:29N 39°24' W 000°18'0 0.0
2015-Apr-16 21:11N 39°24' W 000°18'0 0.0
2015-Apr-16 20:20N 39°24' W 000°18'0 0.0
2015-Apr-16 19:30N 39°24' W 000°18'3 3.5
2015-Apr-16 18:33N 39°22' W 000°14'7612.0
2015-Apr-16 12:16N 38°30' E 000°57'1012.4
2015-Apr-16 11:27N 38°23' E 001°06'  
Track history (hours):
 
Tides and Currents Weather Stations Pressure Air Temp Water Temp Dewpoint Dewpoint Depression Visibility Wind Speed Wind Dir Waves Ship Positions

Jasper S

Last reported at 2015-Apr-26 04:05 UTC. Time now 2015-Apr-27 22:12 UTC.
Position N 37°37' E 002°06'.

Length 148 m; draft 9.2 m.

Type: Ship. MMSI: 305079000.

Date/timePositionNaut miles runAvg speedWind from/ knotsBaromVisibWave heightAir tempDewpointWater temp
2015-Apr-26 04:05N 37°37' E 002°06'611.9
2015-Apr-26 03:33N 37°41' E 002°00'4912.3
2015-Apr-25 23:33N 38°16' E 001°16'1312.5
2015-Apr-25 22:33N 38°25' E 001°04'1212.2
2015-Apr-25 21:33N 38°33' E 000°53'1212.4
2015-Apr-25 20:33N 38°41' E 000°42'1212.2
2015-Apr-25 19:33N 38°50' E 000°31'1512.9
2015-Apr-25 18:23N 39°01' E 000°17'3311.5
2015-Apr-25 15:33N 39°23' W 000°13'6 5.3
2015-Apr-25 14:28N 39°26' W 000°20'0 0.0
2015-Apr-25 13:31N 39°26' W 000°20'0 0.0
2015-Apr-25 12:31N 39°26' W 000°20'0 0.0
2015-Apr-25 11:31N 39°26' W 000°20'0 0.0
2015-Apr-25 10:31N 39°26' W 000°20'0 0.0
2015-Apr-25 09:31N 39°26' W 000°20'0 0.0
2015-Apr-25 08:31N 39°26' W 000°20'0 0.0
2015-Apr-25 07:31N 39°26' W 000°20'0 0.0
2015-Apr-25 06:28N 39°26' W 000°20'0 0.0
2015-Apr-25 05:31N 39°26' W 000°20'0 0.0
2015-Apr-25 04:31N 39°26' W 000°20'0 0.0
2015-Apr-25 03:31N 39°26' W 000°20'0 0.0
2015-Apr-25 02:31N 39°26' W 000°20'0 0.0
2015-Apr-25 01:31N 39°26' W 000°20'0 0.0
2015-Apr-25 00:31N 39°26' W 000°20'0 0.0
2015-Apr-24 23:31N 39°26' W 000°20'1 1.1
2015-Apr-24 22:33N 39°26' W 000°18'2613.1
2015-Apr-24 20:33N 39°08' E 000°07'2217.1
2015-Apr-24 19:16N 38°52' E 000°26'1317.7
2015-Apr-24 18:33N 38°44' E 000°38'1817.8
2015-Apr-24 17:33N 38°31' E 000°55'1818.0
2015-Apr-24 16:33N 38°19' E 001°11'  
2015-Apr-20 13:05N 36°47' E 003°07'0 0.0
2015-Apr-20 11:30N 36°47' E 003°07'0 0.0
2015-Apr-20 03:29N 36°48' E 003°07'0 0.1
2015-Apr-20 02:23N 36°48' E 003°07'0 0.0
2015-Apr-20 01:29N 36°48' E 003°07'56 1.6
2015-Apr-18 14:17N 37°27' E 002°18'912.0
2015-Apr-18 13:33N 37°33' E 002°10'1414.5
2015-Apr-18 12:33N 37°44' E 001°57'1312.5
2015-Apr-18 11:33N 37°52' E 001°46'1312.0
2015-Apr-18 10:29N 38°01' E 001°34'1412.0
2015-Apr-18 09:18N 38°11' E 001°21'912.0
2015-Apr-18 08:33N 38°18' E 001°13'1211.8
2015-Apr-18 07:33N 38°26' E 001°02'1311.7
2015-Apr-18 06:27N 38°35' E 000°51'1311.8
2015-Apr-18 05:23N 38°44' E 000°39'6012.4
2015-Apr-18 00:33N 39°25' W 000°17'3 2.6
2015-Apr-17 23:32N 39°26' W 000°19'0 0.0
2015-Apr-17 22:32N 39°26' W 000°19'0 0.0
2015-Apr-17 21:32N 39°26' W 000°19'0 0.0
2015-Apr-17 20:32N 39°26' W 000°19'0 0.0
2015-Apr-17 19:32N 39°26' W 000°19'0 0.0
2015-Apr-17 18:29N 39°26' W 000°19'0 0.0
2015-Apr-17 17:26N 39°26' W 000°19'0 0.0
2015-Apr-17 16:23N 39°26' W 000°19'0 0.0
2015-Apr-17 15:29N 39°26' W 000°19'0 0.0
2015-Apr-17 14:26N 39°26' W 000°19'0 0.0
2015-Apr-17 13:31N 39°26' W 000°19'0 0.0
2015-Apr-17 12:31N 39°26' W 000°19'0 0.0
2015-Apr-17 11:28N 39°26' W 000°19'2 2.2
2015-Apr-17 10:33N 39°25' W 000°18'1 0.8
2015-Apr-17 09:32N 39°24' W 000°18'0 0.0
2015-Apr-17 08:32N 39°24' W 000°18'0 0.0
2015-Apr-17 07:32N 39°24' W 000°18'0 0.0
2015-Apr-17 06:32N 39°24' W 000°18'0 0.1
2015-Apr-17 05:29N 39°24' W 000°18'0 0.0
2015-Apr-17 04:29N 39°24' W 000°18'0 0.0
2015-Apr-17 03:17N 39°24' W 000°18'0 0.0
2015-Apr-17 02:17N 39°24' W 000°18'0 0.0
2015-Apr-17 01:20N 39°24' W 000°18'0 0.0
2015-Apr-17 00:23N 39°24' W 000°18'0 0.0
2015-Apr-16 23:20N 39°24' W 000°18'0 0.0
2015-Apr-16 22:29N 39°24' W 000°18'0 0.0
2015-Apr-16 21:11N 39°24' W 000°18'0 0.0
2015-Apr-16 20:20N 39°24' W 000°18'0 0.0
2015-Apr-16 19:30N 39°24' W 000°18'3 3.5
2015-Apr-16 18:33N 39°22' W 000°14'7612.0
2015-Apr-16 12:16N 38°30' E 000°57'1012.4
2015-Apr-16 11:27N 38°23' E 001°06'  

Dump ship's entire track history